Time,TemperatureF,DewpointF,PressureIn,WindDirection,WindDirectionDegrees,WindSpeedMPH,WindSpeedGustMPH,Humidity,HourlyPrecipIn,Conditions,Clouds,dailyrainin,SoftwareType,DateUTC
2014-08-22 00:13:00,81.0,78.0,30.10,ESE,106,2.0,3.0,91,-99.99,,,-99.99,,2014-08-22 04:13:00,
2014-08-22 00:24:00,81.0,78.0,30.10,ESE,106,2.0,3.0,91,-99.99,,,-99.99,,2014-08-22 04:24:00,
2014-08-22 01:13:00,80.0,78.0,30.11,West,261,1.0,2.0,95,-99.99,,,-99.99,,2014-08-22 05:13:00,
2014-08-22 03:23:00,80.0,79.0,30.07,ENE,63,0.0,2.0,97,-99.99,,,-99.99,,2014-08-22 07:23:00,
2014-08-22 03:33:00,80.0,79.0,30.07,ENE,63,0.0,2.0,97,-99.99,,,-99.99,,2014-08-22 07:33:00,
2014-08-22 03:53:00,79.0,78.0,30.05,NW,316,0.0,1.0,96,-99.99,,,-99.99,,2014-08-22 07:53:00,
2014-08-22 04:12:00,79.0,78.0,30.05,NW,321,0.0,0.0,96,-99.99,,,-99.99,,2014-08-22 08:12:00,
2014-08-22 04:53:00,79.0,77.0,30.03,WNW,296,0.0,0.0,96,-99.99,,,-99.99,,2014-08-22 08:53:00,
2014-08-22 05:12:00,78.0,77.0,30.03,NW,315,0.0,1.0,96,-99.99,,,-99.99,,2014-08-22 09:12:00,
2014-08-22 05:34:00,78.0,77.0,30.04,NNW,331,1.0,2.0,96,-99.99,,,-99.99,,2014-08-22 09:34:00,
2014-08-22 05:54:00,78.0,77.0,30.03,West,260,2.0,2.0,97,-99.99,,,-99.99,,2014-08-22 09:54:00,
2014-08-22 06:13:00,77.0,77.0,30.03,SSW,198,2.0,3.0,97,-99.99,,,-99.99,,2014-08-22 10:13:00,
2014-08-22 06:54:00,78.0,77.0,30.04,NW,316,2.0,4.0,96,-99.99,,,-99.99,,2014-08-22 10:54:00,
2014-08-22 08:32:00,79.0,78.0,30.05,ESE,102,2.0,4.0,96,-99.99,,,-99.99,,2014-08-22 12:32:00,
2014-08-22 08:53:00,81.0,78.0,30.06,East,95,1.0,2.0,89,-99.99,,,-99.99,,2014-08-22 12:53:00,
2014-08-22 09:12:00,82.0,78.0,30.07,WSW,249,2.0,4.0,87,-99.99,,,-99.99,,2014-08-22 13:12:00,
2014-08-22 09:54:00,85.0,78.0,30.07,WSW,242,1.0,3.0,79,-99.99,,,-99.99,,2014-08-22 13:54:00,
2014-08-22 10:13:00,86.0,77.0,30.08,ESE,113,2.0,5.0,74,-99.99,,,-99.99,,2014-08-22 14:13:00,
2014-08-22 10:23:00,86.0,77.0,30.08,ESE,113,2.0,5.0,74,-99.99,,,-99.99,,2014-08-22 14:23:00,
2014-08-22 10:42:00,86.0,77.0,30.08,ESE,113,2.0,4.0,72,-99.99,,,-99.99,,2014-08-22 14:42:00,
2014-08-22 11:34:00,86.0,76.0,30.08,SE,129,2.0,4.0,71,-99.99,,,-99.99,,2014-08-22 15:34:00,
2014-08-22 13:03:00,89.0,75.0,30.07,SSE,148,3.0,8.0,64,-99.99,,,-99.99,,2014-08-22 17:03:00,
2014-08-22 13:34:00,90.0,75.0,30.07,SSE,150,3.0,6.0,62,-99.99,,,-99.99,,2014-08-22 17:34:00,
2014-08-22 13:53:00,89.0,75.0,30.05,ESE,102,5.0,10.0,62,-99.99,,,-99.99,,2014-08-22 17:53:00,
2014-08-22 14:02:00,89.0,75.0,30.05,ESE,102,5.0,10.0,62,-99.99,,,-99.99,,2014-08-22 18:02:00,
2014-08-22 16:23:00,86.0,78.0,30.02,NE,44,5.0,7.0,74,-99.99,,,-99.99,,2014-08-22 20:23:00,
2014-08-22 16:33:00,86.0,78.0,30.02,NE,44,5.0,7.0,74,-99.99,,,-99.99,,2014-08-22 20:33:00,
2014-08-22 17:23:00,87.0,75.0,30.00,South,174,3.0,7.0,67,-99.99,,,-99.99,,2014-08-22 21:23:00,
2014-08-22 17:34:00,87.0,75.0,30.00,South,174,3.0,7.0,67,-99.99,,,-99.99,,2014-08-22 21:34:00,
2014-08-22 18:04:00,89.0,75.0,29.99,East,100,5.0,9.0,63,-99.99,,,-99.99,,2014-08-22 22:04:00,
2014-08-22 18:23:00,89.0,75.0,29.99,East,92,7.0,10.0,63,-99.99,,,-99.99,,2014-08-22 22:23:00,
2014-08-22 18:33:00,89.0,75.0,29.99,East,92,7.0,10.0,63,-99.99,,,-99.99,,2014-08-22 22:33:00,
2014-08-22 19:22:00,87.0,75.0,29.98,East,86,7.0,10.0,66,-99.99,,,-99.99,,2014-08-22 23:22:00,
2014-08-22 19:33:00,87.0,75.0,29.98,East,86,7.0,10.0,66,-99.99,,,-99.99,,2014-08-22 23:33:00,
2014-08-22 19:52:00,85.0,75.0,29.98,East,89,7.0,10.0,69,-99.99,,,-99.99,,2014-08-22 23:52:00,
2014-08-22 20:03:00,85.0,75.0,29.98,East,89,7.0,10.0,69,-99.99,,,-99.99,,2014-08-23 00:03:00,
2014-08-22 20:23:00,85.0,75.0,29.98,East,81,5.0,8.0,72,-99.99,,,-99.99,,2014-08-23 00:23:00,
2014-08-22 21:22:00,83.0,76.0,30.01,East,88,4.0,5.0,78,-99.99,,,-99.99,,2014-08-23 01:22:00,
2014-08-22 22:33:00,82.0,76.0,30.02,SE,144,1.0,3.0,83,-99.99,,,-99.99,,2014-08-23 02:33:00,
2014-08-22 22:53:00,81.0,77.0,30.02,SSE,149,2.0,3.0,86,-99.99,,,-99.99,,2014-08-23 02:53:00,
2014-08-22 23:02:00,81.0,77.0,30.02,SSE,149,2.0,3.0,86,-99.99,,,-99.99,,2014-08-23 03:02:00,
2014-08-22 23:23:00,81.0,77.0,30.02,SE,145,3.0,3.0,86,-99.99,,,-99.99,,2014-08-23 03:23:00,